sensor_id;sensor_type;location;lat;lon;timestamp;pressure;altitude;pressure_sealevel;temperature;humidity
38289;BME280;24092;53.370;-6.588;2023-04-26T00:01:26;101119.99;;;3.06;100.00
38289;BME280;24092;53.370;-6.588;2023-04-26T00:03:53;101121.08;;;2.19;100.00
38289;BME280;24092;53.370;-6.588;2023-04-26T00:06:20;101124.90;;;1.62;100.00
38289;BME280;24092;53.370;-6.588;2023-04-26T00:08:47;101127.96;;;0.85;100.00
38289;BME280;24092;53.370;-6.588;2023-04-26T00:11:14;101126.80;;;0.50;100.00
38289;BME280;24092;53.370;-6.588;2023-04-26T00:13:41;101123.52;;;0.58;100.00
38289;BME280;24092;53.370;-6.588;2023-04-26T00:16:08;101125.06;;;0.71;100.00
38289;BME280;24092;53.370;-6.588;2023-04-26T00:18:35;101125.61;;;0.49;100.00
38289;BME280;24092;53.370;-6.588;2023-04-26T00:21:02;101126.67;;;0.23;100.00
38289;BME280;24092;53.370;-6.588;2023-04-26T00:23:29;101126.23;;;0.80;100.00
38289;BME280;24092;53.370;-6.588;2023-04-26T00:25:56;101122.58;;;0.40;100.00
38289;BME280;24092;53.370;-6.588;2023-04-26T00:28:24;101122.55;;;1.02;100.00
38289;BME280;24092;53.370;-6.588;2023-04-26T00:30:51;101119.45;;;0.69;100.00
38289;BME280;24092;53.370;-6.588;2023-04-26T00:33:18;101115.79;;;-0.08;100.00
38289;BME280;24092;53.370;-6.588;2023-04-26T00:35:45;101117.04;;;0.35;100.00
38289;BME280;24092;53.370;-6.588;2023-04-26T00:38:12;101114.73;;;0.61;100.00
38289;BME280;24092;53.370;-6.588;2023-04-26T00:40:39;101111.53;;;0.70;100.00
38289;BME280;24092;53.370;-6.588;2023-04-26T00:43:06;101109.12;;;1.79;100.00
38289;BME280;24092;53.370;-6.588;2023-04-26T00:45:33;101107.63;;;1.12;100.00
38289;BME280;24092;53.370;-6.588;2023-04-26T00:48:02;101099.37;;;0.64;100.00
38289;BME280;24092;53.370;-6.588;2023-04-26T00:50:29;101096.27;;;1.20;100.00
38289;BME280;24092;53.370;-6.588;2023-04-26T00:52:58;101095.43;;;1.56;100.00
38289;BME280;24092;53.370;-6.588;2023-04-26T00:55:25;101093.62;;;0.57;100.00
38289;BME280;24092;53.370;-6.588;2023-04-26T00:57:53;101088.61;;;0.28;100.00
38289;BME280;24092;53.370;-6.588;2023-04-26T01:00:19;101084.67;;;1.46;100.00
38289;BME280;24092;53.370;-6.588;2023-04-26T01:02:47;101083.77;;;1.75;100.00
38289;BME280;24092;53.370;-6.588;2023-04-26T01:05:14;101082.49;;;0.44;100.00
38289;BME280;24092;53.370;-6.588;2023-04-26T01:07:41;101080.20;;;0.63;100.00
38289;BME280;24092;53.370;-6.588;2023-04-26T01:10:09;101077.82;;;0.87;100.00
38289;BME280;24092;53.370;-6.588;2023-04-26T01:12:37;101078.09;;;0.65;100.00
38289;BME280;24092;53.370;-6.588;2023-04-26T01:15:05;101071.46;;;0.47;100.00
38289;BME280;24092;53.370;-6.588;2023-04-26T01:17:33;101071.29;;;0.79;100.00
38289;BME280;24092;53.370;-6.588;2023-04-26T01:20:00;101072.42;;;0.67;100.00
38289;BME280;24092;53.370;-6.588;2023-04-26T01:22:31;101072.21;;;0.33;100.00
38289;BME280;24092;53.370;-6.588;2023-04-26T01:24:59;101071.65;;;0.87;100.00
38289;BME280;24092;53.370;-6.588;2023-04-26T01:27:27;101068.79;;;0.34;100.00
38289;BME280;24092;53.370;-6.588;2023-04-26T01:29:54;101066.40;;;0.79;100.00
38289;BME280;24092;53.370;-6.588;2023-04-26T01:32:21;101061.04;;;1.40;100.00
38289;BME280;24092;53.370;-6.588;2023-04-26T01:34:48;101058.27;;;0.70;100.00
38289;BME280;24092;53.370;-6.588;2023-04-26T01:37:15;101049.59;;;-0.20;100.00
38289;BME280;24092;53.370;-6.588;2023-04-26T01:39:42;101044.53;;;-0.03;100.00
38289;BME280;24092;53.370;-6.588;2023-04-26T01:42:09;101049.65;;;0.79;100.00
38289;BME280;24092;53.370;-6.588;2023-04-26T01:44:36;101047.32;;;0.19;100.00
38289;BME280;24092;53.370;-6.588;2023-04-26T01:47:04;101045.26;;;0.30;100.00
38289;BME280;24092;53.370;-6.588;2023-04-26T01:49:31;101046.97;;;0.59;100.00
38289;BME280;24092;53.370;-6.588;2023-04-26T01:51:59;101044.14;;;1.47;100.00
38289;BME280;24092;53.370;-6.588;2023-04-26T01:54:26;101044.17;;;0.51;100.00
38289;BME280;24092;53.370;-6.588;2023-04-26T01:56:53;101039.84;;;2.41;100.00
38289;BME280;24092;53.370;-6.588;2023-04-26T01:59:20;101039.03;;;1.72;100.00
38289;BME280;24092;53.370;-6.588;2023-04-26T02:01:47;101041.40;;;1.78;100.00
38289;BME280;24092;53.370;-6.588;2023-04-26T02:04:15;101043.71;;;3.26;100.00
38289;BME280;24092;53.370;-6.588;2023-04-26T02:06:42;101041.96;;;3.20;100.00
38289;BME280;24092;53.370;-6.588;2023-04-26T02:09:09;101035.80;;;3.95;100.00
38289;BME280;24092;53.370;-6.588;2023-04-26T02:11:36;101032.66;;;3.69;100.00
38289;BME280;24092;53.370;-6.588;2023-04-26T02:14:03;101027.84;;;3.96;100.00
38289;BME280;24092;53.370;-6.588;2023-04-26T02:16:30;101028.21;;;4.01;100.00
38289;BME280;24092;53.370;-6.588;2023-04-26T02:18:57;101023.01;;;2.38;100.00
38289;BME280;24092;53.370;-6.588;2023-04-26T02:21:24;101020.60;;;1.84;100.00
38289;BME280;24092;53.370;-6.588;2023-04-26T02:23:52;101018.08;;;2.35;100.00
38289;BME280;24092;53.370;-6.588;2023-04-26T02:26:19;101016.17;;;1.55;100.00
38289;BME280;24092;53.370;-6.588;2023-04-26T02:28:47;101014.85;;;0.66;100.00
38289;BME280;24092;53.370;-6.588;2023-04-26T02:31:14;101009.97;;;1.60;100.00
38289;BME280;24092;53.370;-6.588;2023-04-26T02:33:41;101010.42;;;2.96;100.00
38289;BME280;24092;53.370;-6.588;2023-04-26T02:36:08;101010.05;;;2.84;100.00
38289;BME280;24092;53.370;-6.588;2023-04-26T02:38:36;101009.24;;;4.25;100.00
38289;BME280;24092;53.370;-6.588;2023-04-26T02:41:04;101012.38;;;4.50;100.00
38289;BME280;24092;53.370;-6.588;2023-04-26T02:43:31;101006.46;;;4.25;100.00
38289;BME280;24092;53.370;-6.588;2023-04-26T02:45:58;101008.07;;;4.00;100.00
38289;BME280;24092;53.370;-6.588;2023-04-26T02:48:25;101007.92;;;4.24;100.00
38289;BME280;24092;53.370;-6.588;2023-04-26T02:50:52;101006.53;;;3.05;100.00
38289;BME280;24092;53.370;-6.588;2023-04-26T02:53:19;101002.43;;;2.80;100.00
38289;BME280;24092;53.370;-6.588;2023-04-26T02:55:46;101004.52;;;2.58;100.00
38289;BME280;24092;53.370;-6.588;2023-04-26T02:58:14;101006.23;;;2.69;100.00
38289;BME280;24092;53.370;-6.588;2023-04-26T03:00:45;101001.66;;;2.42;100.00
38289;BME280;24092;53.370;-6.588;2023-04-26T03:03:12;101000.25;;;2.50;100.00
38289;BME280;24092;53.370;-6.588;2023-04-26T03:05:39;101000.69;;;2.05;100.00
38289;BME280;24092;53.370;-6.588;2023-04-26T03:08:06;100999.66;;;3.07;100.00
38289;BME280;24092;53.370;-6.588;2023-04-26T03:10:33;101001.51;;;2.68;100.00
38289;BME280;24092;53.370;-6.588;2023-04-26T03:13:01;100997.52;;;1.53;100.00
38289;BME280;24092;53.370;-6.588;2023-04-26T03:15:28;101002.71;;;3.52;100.00
38289;BME280;24092;53.370;-6.588;2023-04-26T03:17:55;101001.16;;;4.15;100.00
38289;BME280;24092;53.370;-6.588;2023-04-26T03:20:22;100997.94;;;3.68;100.00
38289;BME280;24092;53.370;-6.588;2023-04-26T03:22:49;100997.94;;;4.51;100.00
38289;BME280;24092;53.370;-6.588;2023-04-26T03:25:16;100994.58;;;5.19;100.00
38289;BME280;24092;53.370;-6.588;2023-04-26T03:27:43;100988.18;;;2.46;100.00
38289;BME280;24092;53.370;-6.588;2023-04-26T03:30:10;100984.37;;;3.33;100.00
38289;BME280;24092;53.370;-6.588;2023-04-26T03:32:38;100984.96;;;3.24;100.00
38289;BME280;24092;53.370;-6.588;2023-04-26T03:35:05;100983.71;;;3.05;100.00
38289;BME280;24092;53.370;-6.588;2023-04-26T03:37:32;100981.06;;;3.29;100.00
38289;BME280;24092;53.370;-6.588;2023-04-26T03:39:59;100988.43;;;2.07;100.00
38289;BME280;24092;53.370;-6.588;2023-04-26T03:42:26;100982.05;;;2.99;100.00
38289;BME280;24092;53.370;-6.588;2023-04-26T03:44:54;100979.58;;;1.79;100.00
38289;BME280;24092;53.370;-6.588;2023-04-26T03:47:20;100975.18;;;1.57;100.00
38289;BME280;24092;53.370;-6.588;2023-04-26T03:49:47;100969.84;;;1.85;100.00
38289;BME280;24092;53.370;-6.588;2023-04-26T03:52:14;100970.72;;;3.40;100.00
38289;BME280;24092;53.370;-6.588;2023-04-26T03:54:41;100963.61;;;3.94;100.00
38289;BME280;24092;53.370;-6.588;2023-04-26T03:57:08;100965.43;;;3.42;100.00
38289;BME280;24092;53.370;-6.588;2023-04-26T03:59:35;100962.37;;;3.28;100.00
38289;BME280;24092;53.370;-6.588;2023-04-26T04:02:03;100966.02;;;4.00;100.00
38289;BME280;24092;53.370;-6.588;2023-04-26T04:04:30;100959.38;;;3.14;100.00
38289;BME280;24092;53.370;-6.588;2023-04-26T04:06:58;100951.21;;;4.21;100.00
38289;BME280;24092;53.370;-6.588;2023-04-26T04:09:25;100948.27;;;3.87;100.00
38289;BME280;24092;53.370;-6.588;2023-04-26T04:11:52;100948.94;;;2.40;100.00
38289;BME280;24092;53.370;-6.588;2023-04-26T04:14:19;100948.37;;;1.05;100.00
38289;BME280;24092;53.370;-6.588;2023-04-26T04:16:46;100942.20;;;2.92;100.00
38289;BME280;24092;53.370;-6.588;2023-04-26T04:19:13;100942.37;;;1.81;100.00
38289;BME280;24092;53.370;-6.588;2023-04-26T04:21:40;100946.86;;;2.82;100.00
38289;BME280;24092;53.370;-6.588;2023-04-26T04:24:07;100951.51;;;2.32;100.00
38289;BME280;24092;53.370;-6.588;2023-04-26T04:26:34;100944.35;;;1.91;100.00
38289;BME280;24092;53.370;-6.588;2023-04-26T04:29:01;100946.47;;;3.48;100.00
38289;BME280;24092;53.370;-6.588;2023-04-26T04:31:28;100953.76;;;3.44;100.00
38289;BME280;24092;53.370;-6.588;2023-04-26T04:33:55;100947.41;;;2.12;100.00
38289;BME280;24092;53.370;-6.588;2023-04-26T04:36:22;100947.68;;;4.21;100.00
38289;BME280;24092;53.370;-6.588;2023-04-26T04:38:50;100954.37;;;5.07;100.00
38289;BME280;24092;53.370;-6.588;2023-04-26T04:41:17;100952.01;;;3.84;100.00
38289;BME280;24092;53.370;-6.588;2023-04-26T04:43:44;100951.41;;;3.50;100.00
38289;BME280;24092;53.370;-6.588;2023-04-26T04:46:11;100955.71;;;4.98;100.00
38289;BME280;24092;53.370;-6.588;2023-04-26T04:48:38;100957.51;;;4.58;100.00
38289;BME280;24092;53.370;-6.588;2023-04-26T04:51:05;100954.56;;;3.49;100.00
38289;BME280;24092;53.370;-6.588;2023-04-26T04:53:32;100949.25;;;4.00;100.00
38289;BME280;24092;53.370;-6.588;2023-04-26T04:55:59;100948.60;;;3.71;100.00
38289;BME280;24092;53.370;-6.588;2023-04-26T04:58:26;100939.43;;;2.86;100.00
38289;BME280;24092;53.370;-6.588;2023-04-26T05:00:53;100935.35;;;2.66;100.00
38289;BME280;24092;53.370;-6.588;2023-04-26T05:03:20;100934.89;;;2.44;100.00
38289;BME280;24092;53.370;-6.588;2023-04-26T05:05:47;100936.86;;;1.98;100.00
38289;BME280;24092;53.370;-6.588;2023-04-26T05:08:15;100939.21;;;2.42;100.00
38289;BME280;24092;53.370;-6.588;2023-04-26T05:10:41;100941.00;;;2.45;100.00
38289;BME280;24092;53.370;-6.588;2023-04-26T05:13:08;100944.58;;;2.44;100.00
38289;BME280;24092;53.370;-6.588;2023-04-26T05:15:35;100949.98;;;1.97;100.00
38289;BME280;24092;53.370;-6.588;2023-04-26T05:18:03;100949.18;;;1.47;100.00
38289;BME280;24092;53.370;-6.588;2023-04-26T05:20:30;100950.37;;;2.70;100.00
38289;BME280;24092;53.370;-6.588;2023-04-26T05:22:57;100955.03;;;2.09;100.00
38289;BME280;24092;53.370;-6.588;2023-04-26T05:25:24;100953.24;;;2.22;100.00
38289;BME280;24092;53.370;-6.588;2023-04-26T05:27:51;100950.15;;;1.70;100.00
38289;BME280;24092;53.370;-6.588;2023-04-26T05:30:19;100949.89;;;2.28;100.00
38289;BME280;24092;53.370;-6.588;2023-04-26T05:32:46;100950.89;;;2.63;100.00
38289;BME280;24092;53.370;-6.588;2023-04-26T05:35:13;100949.54;;;1.85;100.00
38289;BME280;24092;53.370;-6.588;2023-04-26T05:37:40;100951.06;;;2.09;100.00
38289;BME280;24092;53.370;-6.588;2023-04-26T05:40:08;100944.63;;;0.81;100.00
38289;BME280;24092;53.370;-6.588;2023-04-26T05:42:36;100948.54;;;1.77;100.00
38289;BME280;24092;53.370;-6.588;2023-04-26T05:45:03;100948.62;;;1.58;100.00
38289;BME280;24092;53.370;-6.588;2023-04-26T05:47:31;100944.94;;;1.22;100.00
38289;BME280;24092;53.370;-6.588;2023-04-26T05:49:58;100936.54;;;0.89;100.00
38289;BME280;24092;53.370;-6.588;2023-04-26T05:52:25;100934.75;;;0.63;100.00
38289;BME280;24092;53.370;-6.588;2023-04-26T05:54:52;100938.03;;;0.93;100.00
38289;BME280;24092;53.370;-6.588;2023-04-26T05:57:19;100939.10;;;2.51;100.00
38289;BME280;24092;53.370;-6.588;2023-04-26T05:59:46;100944.32;;;1.89;100.00
38289;BME280;24092;53.370;-6.588;2023-04-26T06:02:13;100945.44;;;1.79;100.00
38289;BME280;24092;53.370;-6.588;2023-04-26T06:04:40;100947.03;;;1.46;100.00
38289;BME280;24092;53.370;-6.588;2023-04-26T06:07:07;100950.69;;;0.86;100.00
38289;BME280;24092;53.370;-6.588;2023-04-26T06:09:34;100951.74;;;1.55;100.00
38289;BME280;24092;53.370;-6.588;2023-04-26T06:12:02;100953.12;;;2.81;100.00
38289;BME280;24092;53.370;-6.588;2023-04-26T06:14:29;100950.98;;;1.21;100.00
38289;BME280;24092;53.370;-6.588;2023-04-26T06:16:57;100947.62;;;1.66;100.00
38289;BME280;24092;53.370;-6.588;2023-04-26T06:19:24;100947.83;;;2.03;100.00
38289;BME280;24092;53.370;-6.588;2023-04-26T06:21:51;100951.11;;;1.77;100.00
38289;BME280;24092;53.370;-6.588;2023-04-26T06:24:18;100953.80;;;1.84;100.00
38289;BME280;24092;53.370;-6.588;2023-04-26T06:26:45;100959.46;;;2.83;100.00
38289;BME280;24092;53.370;-6.588;2023-04-26T06:29:12;100958.36;;;3.23;100.00
38289;BME280;24092;53.370;-6.588;2023-04-26T06:31:39;100959.39;;;3.38;100.00
38289;BME280;24092;53.370;-6.588;2023-04-26T06:34:06;100963.91;;;3.68;100.00
38289;BME280;24092;53.370;-6.588;2023-04-26T06:36:33;100965.42;;;3.04;100.00
38289;BME280;24092;53.370;-6.588;2023-04-26T06:39:00;100969.07;;;4.26;100.00
38289;BME280;24092;53.370;-6.588;2023-04-26T06:41:27;100969.61;;;4.30;100.00
38289;BME280;24092;53.370;-6.588;2023-04-26T06:43:54;100963.45;;;2.52;100.00
38289;BME280;24092;53.370;-6.588;2023-04-26T06:46:21;100967.04;;;2.57;100.00
38289;BME280;24092;53.370;-6.588;2023-04-26T06:48:48;100969.09;;;3.94;100.00
38289;BME280;24092;53.370;-6.588;2023-04-26T06:51:15;100973.05;;;3.48;100.00
38289;BME280;24092;53.370;-6.588;2023-04-26T06:53:43;100970.58;;;5.97;100.00
38289;BME280;24092;53.370;-6.588;2023-04-26T06:56:10;100968.89;;;4.75;100.00
38289;BME280;24092;53.370;-6.588;2023-04-26T06:58:37;100966.51;;;3.15;100.00
38289;BME280;24092;53.370;-6.588;2023-04-26T07:01:04;100968.13;;;3.78;100.00
38289;BME280;24092;53.370;-6.588;2023-04-26T07:03:31;100965.52;;;3.30;100.00
38289;BME280;24092;53.370;-6.588;2023-04-26T07:05:58;100964.75;;;6.00;100.00
38289;BME280;24092;53.370;-6.588;2023-04-26T07:08:25;100962.69;;;5.70;100.00
38289;BME280;24092;53.370;-6.588;2023-04-26T07:10:51;100961.57;;;6.43;100.00
38289;BME280;24092;53.370;-6.588;2023-04-26T07:13:18;100957.50;;;5.76;100.00
38289;BME280;24092;53.370;-6.588;2023-04-26T07:15:45;100955.90;;;7.78;100.00
38289;BME280;24092;53.370;-6.588;2023-04-26T07:18:12;100953.91;;;7.04;100.00
38289;BME280;24092;53.370;-6.588;2023-04-26T07:20:39;100957.63;;;8.22;100.00
38289;BME280;24092;53.370;-6.588;2023-04-26T07:23:07;100958.21;;;8.40;100.00
38289;BME280;24092;53.370;-6.588;2023-04-26T07:25:34;100954.86;;;9.47;100.00
38289;BME280;24092;53.370;-6.588;2023-04-26T07:28:01;100954.31;;;10.04;100.00
38289;BME280;24092;53.370;-6.588;2023-04-26T07:30:27;100949.93;;;12.61;90.55
38289;BME280;24092;53.370;-6.588;2023-04-26T07:32:54;100954.63;;;13.90;83.79
38289;BME280;24092;53.370;-6.588;2023-04-26T07:35:21;100955.51;;;13.08;83.49
38289;BME280;24092;53.370;-6.588;2023-04-26T07:37:48;100956.06;;;13.06;82.90
38289;BME280;24092;53.370;-6.588;2023-04-26T07:40:15;100954.22;;;13.92;78.56
38289;BME280;24092;53.370;-6.588;2023-04-26T07:42:42;100951.38;;;9.24;85.77
38289;BME280;24092;53.370;-6.588;2023-04-26T07:45:10;100945.30;;;10.98;88.24
38289;BME280;24092;53.370;-6.588;2023-04-26T07:47:37;100941.91;;;12.41;83.83
38289;BME280;24092;53.370;-6.588;2023-04-26T07:50:05;100941.52;;;12.59;80.01
38289;BME280;24092;53.370;-6.588;2023-04-26T07:52:33;100946.43;;;12.16;80.61
38289;BME280;24092;53.370;-6.588;2023-04-26T07:55:00;100948.22;;;11.53;79.67
38289;BME280;24092;53.370;-6.588;2023-04-26T07:57:27;100949.98;;;10.10;84.22
38289;BME280;24092;53.370;-6.588;2023-04-26T07:59:54;100949.38;;;9.19;84.49
38289;BME280;24092;53.370;-6.588;2023-04-26T08:02:20;100953.05;;;9.92;87.91
38289;BME280;24092;53.370;-6.588;2023-04-26T08:04:49;100950.56;;;10.89;84.82
38289;BME280;24092;53.370;-6.588;2023-04-26T08:07:16;100953.53;;;11.59;83.29
38289;BME280;24092;53.370;-6.588;2023-04-26T08:09:44;100954.07;;;11.76;82.07
38289;BME280;24092;53.370;-6.588;2023-04-26T08:12:11;100954.88;;;12.04;80.75
38289;BME280;24092;53.370;-6.588;2023-04-26T08:14:38;100955.37;;;11.42;80.34
38289;BME280;24092;53.370;-6.588;2023-04-26T08:17:06;100954.46;;;11.18;83.29
38289;BME280;24092;53.370;-6.588;2023-04-26T08:19:34;100962.45;;;4.58;100.00
38289;BME280;24092;53.370;-6.588;2023-04-26T08:22:01;100963.57;;;5.91;100.00
38289;BME280;24092;53.370;-6.588;2023-04-26T08:24:28;100962.85;;;7.35;100.00
38289;BME280;24092;53.370;-6.588;2023-04-26T08:26:56;100960.12;;;9.93;97.60
38289;BME280;24092;53.370;-6.588;2023-04-26T08:29:25;100960.15;;;9.56;91.66
38289;BME280;24092;53.370;-6.588;2023-04-26T08:31:52;100955.17;;;10.30;86.98
38289;BME280;24092;53.370;-6.588;2023-04-26T08:34:20;100949.01;;;12.89;79.83
38289;BME280;24092;53.370;-6.588;2023-04-26T08:36:47;100949.92;;;13.25;79.33
38289;BME280;24092;53.370;-6.588;2023-04-26T08:39:14;100951.19;;;13.08;76.55
38289;BME280;24092;53.370;-6.588;2023-04-26T08:41:42;100951.51;;;12.84;78.23
38289;BME280;24092;53.370;-6.588;2023-04-26T08:44:10;100951.36;;;9.80;85.52
38289;BME280;24092;53.370;-6.588;2023-04-26T08:46:43;100949.09;;;8.16;86.57
38289;BME280;24092;53.370;-6.588;2023-04-26T08:49:18;100949.83;;;5.86;92.90
38289;BME280;24092;53.370;-6.588;2023-04-26T08:51:48;100948.96;;;7.34;92.63
38289;BME280;24092;53.370;-6.588;2023-04-26T08:54:17;100952.14;;;9.10;89.59
38289;BME280;24092;53.370;-6.588;2023-04-26T08:56:45;100949.66;;;7.27;90.76
38289;BME280;24092;53.370;-6.588;2023-04-26T08:59:13;100947.96;;;7.40;88.07
38289;BME280;24092;53.370;-6.588;2023-04-26T09:01:42;100945.35;;;7.20;89.95
38289;BME280;24092;53.370;-6.588;2023-04-26T09:04:10;100949.54;;;8.18;89.23
38289;BME280;24092;53.370;-6.588;2023-04-26T09:06:38;100944.27;;;11.81;85.78
38289;BME280;24092;53.370;-6.588;2023-04-26T09:09:07;100936.55;;;13.15;78.56
38289;BME280;24092;53.370;-6.588;2023-04-26T09:11:52;100942.09;;;7.95;81.67
38289;BME280;24092;53.370;-6.588;2023-04-26T09:14:19;100940.72;;;11.66;81.32
38289;BME280;24092;53.370;-6.588;2023-04-26T09:16:46;100941.60;;;12.30;78.99
38289;BME280;24092;53.370;-6.588;2023-04-26T09:19:13;100937.42;;;12.97;76.76
38289;BME280;24092;53.370;-6.588;2023-04-26T09:21:42;100937.28;;;10.71;81.45
38289;BME280;24092;53.370;-6.588;2023-04-26T09:24:10;100940.27;;;6.89;84.95
38289;BME280;24092;53.370;-6.588;2023-04-26T09:26:37;100942.76;;;8.99;86.96
38289;BME280;24092;53.370;-6.588;2023-04-26T09:29:14;100934.26;;;11.72;79.56
38289;BME280;24092;53.370;-6.588;2023-04-26T09:31:44;100935.69;;;11.65;78.84
38289;BME280;24092;53.370;-6.588;2023-04-26T09:34:12;100933.94;;;8.48;79.78
38289;BME280;24092;53.370;-6.588;2023-04-26T09:36:49;100933.15;;;7.19;87.75
38289;BME280;24092;53.370;-6.588;2023-04-26T09:39:30;100931.36;;;11.36;80.15
38289;BME280;24092;53.370;-6.588;2023-04-26T09:41:58;100931.72;;;12.23;78.38
38289;BME280;24092;53.370;-6.588;2023-04-26T09:44:25;100928.30;;;12.06;75.21
38289;BME280;24092;53.370;-6.588;2023-04-26T09:47:01;100928.85;;;13.09;72.80
38289;BME280;24092;53.370;-6.588;2023-04-26T09:49:31;100930.96;;;13.82;71.49
38289;BME280;24092;53.370;-6.588;2023-04-26T09:52:00;100931.10;;;13.03;72.25
38289;BME280;24092;53.370;-6.588;2023-04-26T09:54:45;100932.62;;;9.63;77.38
38289;BME280;24092;53.370;-6.588;2023-04-26T09:57:14;100928.95;;;12.58;74.66
38289;BME280;24092;53.370;-6.588;2023-04-26T09:59:44;100933.77;;;9.35;78.61
38289;BME280;24092;53.370;-6.588;2023-04-26T10:02:16;100934.04;;;12.91;73.17
38289;BME280;24092;53.370;-6.588;2023-04-26T10:04:46;100933.62;;;13.47;70.15
38289;BME280;24092;53.370;-6.588;2023-04-26T10:07:16;100926.24;;;11.72;71.61
38289;BME280;24092;53.370;-6.588;2023-04-26T10:09:44;100922.70;;;12.43;68.42
38289;BME280;24092;53.370;-6.588;2023-04-26T10:12:12;100924.12;;;13.84;67.80
38289;BME280;24092;53.370;-6.588;2023-04-26T10:14:41;100918.86;;;13.64;66.01
38289;BME280;24092;53.370;-6.588;2023-04-26T10:17:08;100921.22;;;13.64;66.25
38289;BME280;24092;53.370;-6.588;2023-04-26T10:19:37;100920.59;;;13.73;65.86
38289;BME280;24092;53.370;-6.588;2023-04-26T10:22:10;100918.97;;;12.94;66.51
38289;BME280;24092;53.370;-6.588;2023-04-26T10:24:38;100919.04;;;14.04;65.08
38289;BME280;24092;53.370;-6.588;2023-04-26T10:27:05;100913.27;;;14.88;62.48
38289;BME280;24092;53.370;-6.588;2023-04-26T10:30:06;100913.35;;;14.73;61.45
38289;BME280;24092;53.370;-6.588;2023-04-26T10:33:10;100912.05;;;12.70;65.34
38289;BME280;24092;53.370;-6.588;2023-04-26T10:36:00;100914.65;;;8.04;72.42
38289;BME280;24092;53.370;-6.588;2023-04-26T10:38:28;100905.14;;;11.47;71.17
38289;BME280;24092;53.370;-6.588;2023-04-26T10:41:27;100912.16;;;8.86;72.59
38289;BME280;24092;53.370;-6.588;2023-04-26T10:43:54;100911.83;;;10.95;71.23
38289;BME280;24092;53.370;-6.588;2023-04-26T10:46:39;100909.29;;;13.54;65.73
38289;BME280;24092;53.370;-6.588;2023-04-26T10:49:22;100906.02;;;10.65;66.59
38289;BME280;24092;53.370;-6.588;2023-04-26T10:52:21;100905.31;;;11.31;69.63
38289;BME280;24092;53.370;-6.588;2023-04-26T10:54:50;100906.59;;;6.48;79.42
38289;BME280;24092;53.370;-6.588;2023-04-26T10:57:18;100904.99;;;6.82;80.57
38289;BME280;24092;53.370;-6.588;2023-04-26T11:00:22;100903.97;;;6.19;82.07
38289;BME280;24092;53.370;-6.588;2023-04-26T11:02:57;100902.78;;;9.30;79.19
38289;BME280;24092;53.370;-6.588;2023-04-26T11:05:34;100898.64;;;7.65;78.16
38289;BME280;24092;53.370;-6.588;2023-04-26T11:08:04;100896.37;;;7.24;78.07
38289;BME280;24092;53.370;-6.588;2023-04-26T11:10:31;100895.34;;;8.45;76.41
38289;BME280;24092;53.370;-6.588;2023-04-26T11:12:59;100900.70;;;8.20;78.21
38289;BME280;24092;53.370;-6.588;2023-04-26T11:15:27;100894.22;;;11.40;69.12
38289;BME280;24092;53.370;-6.588;2023-04-26T11:17:54;100894.75;;;10.97;65.99
38289;BME280;24092;53.370;-6.588;2023-04-26T11:20:22;100899.27;;;7.96;69.68
38289;BME280;24092;53.370;-6.588;2023-04-26T11:22:49;100894.27;;;10.05;69.62
38289;BME280;24092;53.370;-6.588;2023-04-26T11:25:16;100899.16;;;10.81;70.09
38289;BME280;24092;53.370;-6.588;2023-04-26T11:27:43;100898.18;;;12.96;66.62
38289;BME280;24092;53.370;-6.588;2023-04-26T11:30:11;100898.13;;;13.48;62.32
38289;BME280;24092;53.370;-6.588;2023-04-26T11:32:39;100901.92;;;11.23;67.00
38289;BME280;24092;53.370;-6.588;2023-04-26T11:35:07;100901.77;;;13.78;62.92
38289;BME280;24092;53.370;-6.588;2023-04-26T11:37:34;100902.53;;;13.71;62.81
38289;BME280;24092;53.370;-6.588;2023-04-26T11:40:01;100909.91;;;7.56;68.57
38289;BME280;24092;53.370;-6.588;2023-04-26T11:42:28;100909.06;;;12.38;64.71
38289;BME280;24092;53.370;-6.588;2023-04-26T11:44:56;100908.51;;;11.69;64.42
38289;BME280;24092;53.370;-6.588;2023-04-26T11:47:23;100908.31;;;10.64;69.25
38289;BME280;24092;53.370;-6.588;2023-04-26T11:49:51;100908.44;;;13.45;63.04
38289;BME280;24092;53.370;-6.588;2023-04-26T11:52:18;100912.07;;;13.98;60.96
38289;BME280;24092;53.370;-6.588;2023-04-26T11:54:45;100915.76;;;14.01;60.92
38289;BME280;24092;53.370;-6.588;2023-04-26T11:57:14;100915.52;;;15.13;58.91
38289;BME280;24092;53.370;-6.588;2023-04-26T11:59:41;100918.39;;;13.68;59.96
38289;BME280;24092;53.370;-6.588;2023-04-26T12:02:09;100920.60;;;13.92;57.99
38289;BME280;24092;53.370;-6.588;2023-04-26T12:04:36;100916.74;;;13.16;59.26
38289;BME280;24092;53.370;-6.588;2023-04-26T12:07:04;100911.70;;;13.12;60.42
38289;BME280;24092;53.370;-6.588;2023-04-26T12:09:32;100913.59;;;14.11;57.35
38289;BME280;24092;53.370;-6.588;2023-04-26T12:12:01;100916.75;;;13.56;56.57
38289;BME280;24092;53.370;-6.588;2023-04-26T12:14:30;100913.34;;;12.85;59.30
38289;BME280;24092;53.370;-6.588;2023-04-26T12:16:58;100912.04;;;13.46;57.90
38289;BME280;24092;53.370;-6.588;2023-04-26T12:19:25;100905.68;;;13.33;59.32
38289;BME280;24092;53.370;-6.588;2023-04-26T12:21:52;100908.31;;;14.50;58.29
38289;BME280;24092;53.370;-6.588;2023-04-26T12:24:22;100903.56;;;14.60;57.96
38289;BME280;24092;53.370;-6.588;2023-04-26T12:26:49;100905.30;;;10.74;60.17
38289;BME280;24092;53.370;-6.588;2023-04-26T12:29:17;100905.40;;;10.71;62.48
38289;BME280;24092;53.370;-6.588;2023-04-26T12:31:45;100901.76;;;13.25;59.45
38289;BME280;24092;53.370;-6.588;2023-04-26T12:34:12;100901.64;;;14.20;59.24
38289;BME280;24092;53.370;-6.588;2023-04-26T12:36:40;100900.19;;;12.21;60.29
38289;BME280;24092;53.370;-6.588;2023-04-26T12:39:08;100902.69;;;8.89;62.55
38289;BME280;24092;53.370;-6.588;2023-04-26T12:41:35;100896.19;;;10.65;60.05
38289;BME280;24092;53.370;-6.588;2023-04-26T12:44:02;100893.60;;;11.64;59.44
38289;BME280;24092;53.370;-6.588;2023-04-26T12:46:29;100896.33;;;11.10;58.88